Time;durP1;ratioP1;P1;durP2;ratioP2;P2;SDS_P1;SDS_P2;PMS_P1;PMS_P2;Temp;Humidity;BMP_temperature;BMP_pressure;BME280_temperature;BME280_humidity;BME280_pressure;Samples;Min_cycle;Max_cycle;Signal;HPM_P1;HPM_P2
2022/12/26 00:01:24;;;;;;;3.80;3.13;;;10.50;99.90;;;;;;5071055;28;20453;-88
2022/12/26 00:03:51;;;;;;;10.97;5.00;;;;;;;;;;5072276;28;20921;-77
2022/12/26 00:06:21;;;;;;;6.67;3.77;;;10.60;99.90;;;;;;5072266;28;20449;-82
2022/12/26 00:08:48;;;;;;;9.00;3.93;;;;;;;;;;5072205;28;20516;-78
2022/12/26 00:11:16;;;;;;;3.27;1.50;;;10.50;99.90;;;;;;5072279;28;20442;-77
2022/12/26 00:13:45;;;;;;;4.80;3.03;;;10.50;99.90;;;;;;5072282;28;20949;-86
2022/12/26 00:16:14;;;;;;;4.47;2.30;;;10.40;99.90;;;;;;5070816;28;20454;-77
2022/12/26 00:18:41;;;;;;;6.67;3.73;;;;;;;;;;5071921;28;20450;-77
2022/12/26 00:21:11;;;;;;;6.50;3.50;;;10.30;99.90;;;;;;5071941;28;20468;-77
2022/12/26 00:23:38;;;;;;;3.80;3.03;;;;;;;;;;5074253;28;20453;-77
2022/12/26 00:26:06;;;;;;;4.10;2.93;;;10.30;99.90;;;;;;5075538;28;20452;-78
2022/12/26 00:28:33;;;;;;;3.30;2.97;;;;;;;;;;5075391;28;20493;-80
2022/12/26 00:31:05;;;;;;;5.90;3.20;;;10.20;99.90;;;;;;5074195;28;20454;-80
2022/12/26 00:33:33;;;;;;;2.77;1.87;;;10.20;99.90;;;;;;5075345;28;20441;-77
2022/12/26 00:36:02;;;;;;;1.63;1.30;;;10.30;99.90;;;;;;5075369;28;20468;-76
2022/12/26 00:38:29;;;;;;;2.53;2.20;;;10.20;99.90;;;;;;5075375;28;20446;-76
2022/12/26 00:40:56;;;;;;;4.03;2.37;;;;;;;;;;5075299;28;20449;-77
2022/12/26 00:43:23;;;;;;;3.03;2.73;;;;;;;;;;5075192;28;20450;-76
2022/12/26 00:45:50;;;;;;;1.93;1.33;;;;;;;;;;5073921;28;20456;-79
2022/12/26 00:48:18;;;;;;;2.30;2.00;;;10.20;99.90;;;;;;5074973;28;20492;-76
2022/12/26 00:50:45;;;;;;;3.07;2.10;;;;;;;;;;5075148;28;20453;-77
2022/12/26 00:53:12;;;;;;;3.53;1.77;;;;;;;;;;5075222;28;20449;-80
2022/12/26 00:55:40;;;;;;;3.27;2.10;;;;;;;;;;5075073;28;20450;-77
2022/12/26 00:58:07;;;;;;;4.80;2.67;;;;;;;;;;5074871;28;20486;-77
2022/12/26 01:00:34;;;;;;;2.50;2.30;;;;;;;;;;5073747;28;20461;-82
2022/12/26 01:03:01;;;;;;;2.43;2.23;;;;;;;;;;5074936;28;20453;-80
2022/12/26 01:05:29;;;;;;;3.10;2.67;;;9.90;99.90;;;;;;5075006;28;20449;-78
2022/12/26 01:07:56;;;;;;;2.73;2.47;;;;;;;;;;5074819;28;20485;-77
2022/12/26 01:10:23;;;;;;;2.27;2.00;;;;;;;;;;5074855;28;20450;-77
2022/12/26 01:12:50;;;;;;;1.60;1.43;;;;;;;;;;5074769;28;20450;-77
2022/12/26 01:15:17;;;;;;;1.93;1.77;;;;;;;;;;5073352;28;20453;-81
2022/12/26 01:17:44;;;;;;;2.57;2.00;;;;;;;;;;5074658;28;20454;-81
2022/12/26 01:20:12;;;;;;;3.30;2.30;;;9.80;99.90;;;;;;5074689;28;20449;-77
2022/12/26 01:22:40;;;;;;;4.93;2.27;;;9.70;99.90;;;;;;5074545;28;20454;-76
2022/12/26 01:25:08;;;;;;;6.63;2.57;;;9.70;99.90;;;;;;5074456;28;20442;-83
2022/12/26 01:27:35;;;;;;;4.10;2.90;;;;;;;;;;5074330;28;20460;-79
2022/12/26 01:30:02;;;;;;;3.17;2.20;;;;;;;;;;5073288;28;20457;-76
2022/12/26 01:32:29;;;;;;;3.00;2.23;;;;;;;;;;5074327;28;20472;-78
2022/12/26 01:34:56;;;;;;;2.80;2.20;;;;;;;;;;5074332;28;20446;-78
2022/12/26 01:37:23;;;;;;;7.67;2.10;;;;;;;;;;5074254;28;20446;-78
2022/12/26 01:39:51;;;;;;;2.27;1.90;;;9.90;99.90;;;;;;5074266;28;20448;-79
2022/12/26 01:42:20;;;;;;;2.10;2.00;;;9.90;99.90;;;;;;5074156;28;20777;-84
2022/12/26 01:45:00;;;;;;;3.70;2.03;;;9.80;99.90;;;;;;5073949;28;20442;-77
2022/12/26 01:47:37;;;;;;;2.20;2.00;;;9.00;99.90;;;;;;5073782;28;20438;-76
2022/12/26 01:50:06;;;;;;;2.30;1.60;;;9.90;99.90;;;;;;5073949;28;20461;-77
2022/12/26 01:52:36;;;;;;;2.37;1.97;;;10.00;99.90;;;;;;5074006;28;20442;-80
2022/12/26 01:55:08;;;;;;;3.03;2.17;;;9.40;99.90;;;;;;5073786;28;20445;-84
2022/12/26 01:57:41;;;;;;;2.90;2.20;;;10.00;99.90;;;;;;5073669;28;20548;-77
2022/12/26 02:00:09;;;;;;;1.73;1.43;;;9.90;99.90;;;;;;5072519;28;20446;-78
2022/12/26 02:05:32;;;;;;;1.90;1.50;;;;;;;;;;5073758;28;20457;-81
2022/12/26 02:05:34;;;;;;;2.83;2.00;;;10.00;99.90;;;;;;5073478;28;20437;-77
2022/12/26 02:08:04;;;;;;;1.93;1.80;;;10.00;99.90;;;;;;5073534;28;20477;-76
2022/12/26 02:10:36;;;;;;;2.07;1.27;;;10.10;99.90;;;;;;5073481;28;20456;-77
2022/12/26 02:13:03;;;;;;;2.00;1.57;;;;;;;;;;5073457;28;20450;-77
2022/12/26 02:15:31;;;;;;;3.07;2.10;;;10.10;99.90;;;;;;5072053;28;20442;-85
2022/12/26 02:17:58;;;;;;;1.50;1.40;;;;;;;;;;5073120;28;20453;-77
2022/12/26 02:20:27;;;;;;;2.87;1.70;;;10.40;99.90;;;;;;5073128;28;20813;-78
2022/12/26 02:23:19;;;;;;;3.10;1.83;;;10.60;99.90;;;;;;5073321;28;20449;-76
2022/12/26 02:26:10;;;;;;;1.50;1.40;;;10.30;99.90;;;;;;5073198;28;20457;-76
2022/12/26 02:28:57;;;;;;;1.83;1.67;;;10.40;99.90;;;;;;5072942;28;20632;-78
2022/12/26 02:31:31;;;;;;;2.23;1.50;;;10.40;99.90;;;;;;5071732;28;20968;-78
2022/12/26 02:34:06;;;;;;;2.80;2.20;;;10.40;99.90;;;;;;5073180;28;20445;-77
2022/12/26 02:36:46;;;;;;;1.30;1.10;;;10.40;99.90;;;;;;5072975;28;20448;-81
2022/12/26 02:39:28;;;;;;;1.57;1.47;;;10.80;99.90;;;;;;5072995;28;20457;-78
2022/12/26 02:42:03;;;;;;;4.40;1.40;;;10.50;99.90;;;;;;5072986;28;20445;-80
2022/12/26 02:47:35;;;;;;;3.63;1.50;;;10.50;99.90;;;;;;5071968;28;20523;-77
2022/12/26 03:15:27;;;;;;;2.57;2.20;;;10.70;99.90;;;;;;5071475;28;20967;-80
2022/12/26 03:17:57;;;;;;;2.07;1.40;;;10.70;99.90;;;;;;5074131;28;20441;-75
2022/12/26 03:20:29;;;;;;;3.73;1.90;;;10.70;99.90;;;;;;5077895;28;20522;-79
2022/12/26 03:22:59;;;;;;;1.83;1.73;;;10.80;99.90;;;;;;5073906;28;20971;-79
2022/12/26 03:28:21;;;;;;;1.87;1.50;;;;;;;;;;5072586;28;20472;-83
2022/12/26 03:30:50;;;;;;;3.20;2.13;;;;;;;;;;5071199;28;20492;-78
2022/12/26 03:36:05;;;;;;;2.30;1.87;;;10.50;99.90;;;;;;5072521;28;21008;-78
2022/12/26 03:38:37;;;;;;;2.07;1.80;;;10.70;99.90;;;;;;5072509;28;20468;-78
2022/12/26 04:41:34;;;;;;;2.20;2.00;;;10.50;99.90;;;;;;5054551;28;20444;-78
2022/12/26 04:46:26;;;;;;;2.30;1.60;;;10.50;99.90;;;;;;5074134;28;20939;-77
2022/12/26 04:51:40;;;;;;;1.37;1.27;;;;;;;;;;5075371;28;20767;-79
2022/12/26 04:54:07;;;;;;;2.50;2.30;;;;;;;;;;5075098;28;20455;-78
2022/12/26 04:56:34;;;;;;;1.60;1.50;;;;;;;;;;5075142;28;20438;-79
2022/12/26 04:59:02;;;;;;;2.10;1.80;;;10.50;99.90;;;;;;5074860;28;20489;-79
2022/12/26 05:09:44;;;;;;;2.60;1.90;;;;;;;;;;5074324;28;20492;-78
2022/12/26 05:12:11;;;;;;;2.10;1.80;;;;;;;;;;5074704;28;20449;-78
2022/12/26 05:14:40;;;;;;;2.20;1.90;;;10.20;99.90;;;;;;5074886;28;20540;-80
2022/12/26 05:28:41;;;;;;;2.10;1.70;;;;;;;;;;5012584;28;20432;-83
2022/12/26 05:31:10;;;;;;;3.73;1.60;;;10.10;99.90;;;;;;5053829;28;20466;-83
2022/12/26 05:36:24;;;;;;;2.90;1.80;;;10.10;99.90;;;;;;5074549;28;20428;-85
2022/12/26 05:38:51;;;;;;;1.53;1.43;;;;;;;;;;5074290;28;20442;-78
2022/12/26 05:41:18;;;;;;;2.10;1.87;;;;;;;;;;5074406;28;20445;-78
2022/12/26 05:43:45;;;;;;;2.90;1.47;;;;;;;;;;5076607;28;20456;-77
2022/12/26 05:46:14;;;;;;;2.83;2.00;;;10.00;99.90;;;;;;5077928;28;20816;-79
2022/12/26 05:48:41;;;;;;;2.70;1.40;;;;;;;;;;5073970;28;20486;-79
2022/12/26 05:51:08;;;;;;;2.27;1.80;;;;;;;;;;5074047;28;20453;-83
2022/12/26 05:53:35;;;;;;;2.60;1.80;;;;;;;;;;5074151;28;20450;-84
2022/12/26 05:56:04;;;;;;;4.60;1.73;;;10.30;99.90;;;;;;5074049;28;20449;-78
2022/12/26 05:58:31;;;;;;;2.60;2.00;;;;;;;;;;5073735;28;20481;-80
2022/12/26 06:01:09;;;;;;;2.00;1.43;;;10.30;99.90;;;;;;5072565;28;20453;-78
2022/12/26 06:03:37;;;;;;;2.73;1.40;;;10.40;99.90;;;;;;5073850;28;20442;-79
2022/12/26 06:06:05;;;;;;;3.73;2.13;;;10.90;99.90;;;;;;5073737;28;20453;-80
2022/12/26 06:08:32;;;;;;;2.33;1.80;;;;;;;;;;5073626;28;20448;-77
2022/12/26 06:10:59;;;;;;;3.50;1.93;;;;;;;;;;5073730;28;20445;-79
2022/12/26 06:13:26;;;;;;;1.47;1.37;;;;;;;;;;5073652;28;20464;-78
2022/12/26 06:15:53;;;;;;;2.10;1.90;;;;;;;;;;5072202;28;20445;-78
2022/12/26 06:18:20;;;;;;;2.93;2.27;;;;;;;;;;5073510;28;20800;-82
2022/12/26 06:20:48;;;;;;;1.90;1.80;;;10.50;99.90;;;;;;5072754;28;20457;-83
2022/12/26 06:23:15;;;;;;;1.93;1.67;;;10.30;99.90;;;;;;5073483;28;20446;-78
2022/12/26 06:25:42;;;;;;;2.07;1.60;;;;;;;;;;5073402;28;20968;-78
2022/12/26 06:28:09;;;;;;;1.63;1.53;;;;;;;;;;5073557;28;20458;-81
2022/12/26 06:30:36;;;;;;;1.97;1.70;;;;;;;;;;5072126;28;20497;-78
2022/12/26 06:33:03;;;;;;;3.10;1.67;;;;;;;;;;5073381;28;20453;-78
2022/12/26 06:35:30;;;;;;;4.23;2.50;;;;;;;;;;5073211;28;20936;-78
2022/12/26 06:37:58;;;;;;;3.87;2.10;;;10.50;99.90;;;;;;5073224;28;20446;-79
2022/12/26 06:40:25;;;;;;;2.17;1.80;;;;;;;;;;5073240;28;20450;-78
2022/12/26 06:42:52;;;;;;;2.80;1.90;;;;;;;;;;5072972;28;20452;-78
2022/12/26 06:45:19;;;;;;;2.47;1.70;;;;;;;;;;5071816;28;20450;-79
2022/12/26 06:47:47;;;;;;;2.33;2.13;;;;;;;;;;5073123;28;20453;-77
2022/12/26 06:50:14;;;;;;;3.67;2.43;;;;;;;;;;5072977;28;21038;-81
2022/12/26 06:52:41;;;;;;;3.00;1.90;;;;;;;;;;5073035;28;20925;-80
2022/12/26 06:55:09;;;;;;;3.10;2.23;;;10.40;99.90;;;;;;5073047;28;20450;-75
2022/12/26 06:57:36;;;;;;;3.63;1.80;;;;;;;;;;5072768;28;20488;-75
2022/12/26 07:00:04;;;;;;;3.27;2.33;;;10.20;99.90;;;;;;5071885;28;20449;-78
2022/12/26 07:02:31;;;;;;;2.00;1.80;;;;;;;;;;5073026;28;20441;-78
2022/12/26 07:04:58;;;;;;;2.13;1.93;;;;;;;;;;5072989;28;20448;-78
2022/12/26 07:07:25;;;;;;;3.80;2.43;;;;;;;;;;5072924;28;20449;-80
2022/12/26 07:09:52;;;;;;;5.13;1.70;;;;;;;;;;5072757;28;20501;-80
2022/12/26 07:12:20;;;;;;;2.17;1.97;;;10.30;99.90;;;;;;5072773;28;20456;-82
2022/12/26 07:14:47;;;;;;;2.93;2.53;;;;;;;;;;5072843;28;20536;-79
2022/12/26 07:17:15;;;;;;;2.87;2.03;;;;;;;;;;5071553;28;20446;-81
2022/12/26 07:19:42;;;;;;;2.00;1.80;;;;;;;;;;5072849;28;20441;-79
2022/12/26 07:22:09;;;;;;;2.10;1.77;;;;;;;;;;5072740;28;20456;-80
2022/12/26 07:24:36;;;;;;;2.03;1.70;;;;;;;;;;5072577;28;20449;-76
2022/12/26 07:27:03;;;;;;;2.97;2.00;;;;;;;;;;5072698;28;20493;-76
2022/12/26 07:29:31;;;;;;;2.60;2.10;;;10.20;99.90;;;;;;5072545;28;20489;-75
2022/12/26 07:31:58;;;;;;;4.53;2.50;;;;;;;;;;5072840;28;20445;-76
2022/12/26 07:34:25;;;;;;;3.20;2.33;;;;;;;;;;5076693;28;20802;-78
2022/12/26 07:36:52;;;;;;;3.10;2.13;;;;;;;;;;5076803;28;20457;-76
2022/12/26 07:39:19;;;;;;;2.60;2.10;;;;;;;;;;5076611;28;20450;-81
2022/12/26 07:41:58;;;;;;;3.00;1.97;;;;;;;;;;5076609;28;20449;-75
2022/12/26 07:44:26;;;;;;;2.10;1.90;;;;;;;;;;5076564;28;20459;-77
2022/12/26 07:46:55;;;;;;;2.73;2.40;;;10.00;99.90;;;;;;5075171;28;20437;-78
2022/12/26 07:49:22;;;;;;;2.70;2.40;;;;;;;;;;5076464;28;20488;-77
2022/12/26 07:51:49;;;;;;;2.87;2.43;;;;;;;;;;5076278;28;20507;-79
2022/12/26 07:54:17;;;;;;;2.57;2.20;;;;;;;;;;5076320;28;20948;-80
2022/12/26 07:56:44;;;;;;;3.23;2.50;;;10.20;99.90;;;;;;5076257;28;20449;-78
2022/12/26 07:59:14;;;;;;;4.00;2.93;;;10.00;99.90;;;;;;5076052;28;20845;-79
2022/12/26 08:01:41;;;;;;;3.03;2.67;;;;;;;;;;5074912;28;20940;-79
2022/12/26 08:04:09;;;;;;;3.67;2.57;;;10.20;99.90;;;;;;5076120;28;20449;-82
2022/12/26 08:06:37;;;;;;;4.03;2.23;;;;;;;;;;5076074;28;20464;-79
2022/12/26 08:09:04;;;;;;;3.67;2.40;;;10.20;99.90;;;;;;5078916;28;20452;-78
2022/12/26 08:11:33;;;;;;;3.23;2.40;;;9.60;99.90;;;;;;5081779;28;20457;-77
2022/12/26 08:14:00;;;;;;;3.13;1.97;;;;;;;;;;5075992;28;20789;-79
2022/12/26 08:16:28;;;;;;;2.00;1.60;;;;;;;;;;5074696;28;20524;-80
2022/12/26 08:18:55;;;;;;;3.20;2.10;;;;;;;;;;5075732;28;20445;-77
2022/12/26 08:21:23;;;;;;;2.30;1.97;;;9.90;99.90;;;;;;5075814;28;20967;-80
2022/12/26 08:23:50;;;;;;;3.77;2.30;;;;;;;;;;5075826;28;20783;-77
2022/12/26 08:26:21;;;;;;;2.77;2.03;;;;;;;;;;5075774;28;20829;-78
2022/12/26 08:28:49;;;;;;;6.13;2.63;;;9.70;99.90;;;;;;5075576;28;21122;-77
2022/12/26 08:31:17;;;;;;;2.33;1.97;;;;;;;;;;5074172;28;20504;-77
2022/12/26 08:33:44;;;;;;;2.97;2.40;;;;;;;;;;5075517;28;20464;-83
2022/12/26 08:36:12;;;;;;;4.07;2.67;;;9.80;99.90;;;;;;5075480;28;20933;-77
2022/12/26 08:38:41;;;;;;;2.57;2.30;;;9.60;99.90;;;;;;5075378;28;20437;-81
2022/12/26 08:41:08;;;;;;;2.60;2.10;;;;;;;;;;5075300;28;20450;-78
2022/12/26 08:43:35;;;;;;;5.97;2.77;;;;;;;;;;5074549;28;20452;-79
2022/12/26 08:46:05;;;;;;;3.50;2.50;;;9.80;99.90;;;;;;5074015;28;20446;-79
2022/12/26 08:48:32;;;;;;;3.20;2.37;;;;;;;;;;5075335;28;20446;-79
2022/12/26 08:51:01;;;;;;;1.93;1.77;;;10.10;99.90;;;;;;5075168;28;20639;-80
2022/12/26 08:53:28;;;;;;;5.57;2.10;;;9.80;99.90;;;;;;5075144;28;20449;-84
2022/12/26 08:55:57;;;;;;;4.23;2.20;;;9.90;99.90;;;;;;5075205;28;20442;-77
2022/12/26 08:58:24;;;;;;;2.60;1.93;;;;;;;;;;5074903;28;20481;-77
2022/12/26 09:00:51;;;;;;;2.10;1.90;;;;;;;;;;5073754;28;20604;-82
2022/12/26 09:03:18;;;;;;;6.17;2.33;;;;;;;;;;5075031;28;20445;-77
2022/12/26 09:05:45;;;;;;;2.50;2.13;;;9.80;99.90;;;;;;5075200;28;20442;-77
2022/12/26 09:08:12;;;;;;;5.03;2.13;;;;;;;;;;5074961;28;20445;-77
2022/12/26 09:10:39;;;;;;;3.47;2.23;;;;;;;;;;5074801;28;20485;-77
2022/12/26 09:13:07;;;;;;;5.90;2.77;;;9.90;99.90;;;;;;5074724;28;20449;-79
2022/12/26 09:15:34;;;;;;;4.00;2.40;;;;;;;;;;5073444;28;20450;-77
2022/12/26 09:18:01;;;;;;;3.30;2.47;;;;;;;;;;5074761;28;20453;-78
2022/12/26 09:20:28;;;;;;;4.23;2.90;;;;;;;;;;5074726;28;20457;-81
2022/12/26 09:22:55;;;;;;;2.70;2.47;;;;;;;;;;5074590;28;20445;-84
2022/12/26 09:25:24;;;;;;;4.03;2.97;;;9.70;99.90;;;;;;5074510;28;20442;-77
2022/12/26 09:27:53;;;;;;;3.30;2.10;;;;;;;;;;5074221;28;20469;-77
2022/12/26 09:30:22;;;;;;;4.07;3.00;;;9.60;99.90;;;;;;5073182;28;20493;-77
2022/12/26 09:32:50;;;;;;;1.57;1.00;;;;;;;;;;5074378;28;20800;-76
2022/12/26 09:35:17;;;;;;;5.07;3.20;;;;;;;;;;5074327;28;20445;-78
2022/12/26 09:37:44;;;;;;;4.60;3.33;;;;;;;;;;5074155;28;20454;-77
2022/12/26 09:40:21;;;;;;;3.33;2.60;;;9.70;99.90;;;;;;5074064;28;20971;-78
2022/12/26 09:43:03;;;;;;;6.60;2.70;;;9.30;99.90;;;;;;5074194;28;20445;-78
2022/12/26 09:45:44;;;;;;;3.60;2.20;;;9.60;99.90;;;;;;5072953;28;20452;-78
2022/12/26 09:48:18;;;;;;;2.70;2.10;;;9.50;99.90;;;;;;5074149;28;20468;-77
2022/12/26 09:50:50;;;;;;;4.67;2.40;;;9.50;99.90;;;;;;5074001;28;20493;-78
2022/12/26 09:53:19;;;;;;;3.03;2.47;;;9.50;99.90;;;;;;5074077;28;20453;-76
2022/12/26 09:55:51;;;;;;;3.90;3.30;;;9.50;99.90;;;;;;5073800;28;20450;-84
2022/12/26 09:58:25;;;;;;;5.60;2.97;;;9.50;99.90;;;;;;5073824;28;20478;-78
2022/12/26 10:00:58;;;;;;;4.30;3.30;;;9.40;99.90;;;;;;5072562;28;20453;-78
2022/12/26 10:03:25;;;;;;;4.03;2.57;;;;;;;;;;5073684;28;20450;-77
2022/12/26 10:06:08;;;;;;;8.77;3.03;;;9.10;99.90;;;;;;5073676;28;20951;-76
2022/12/26 10:09:08;;;;;;;5.73;3.00;;;9.30;99.90;;;;;;5073550;28;20454;-77
2022/12/26 10:11:46;;;;;;;4.10;3.70;;;9.20;99.90;;;;;;5058132;28;21003;-76
2022/12/26 10:14:20;;;;;;;5.60;3.93;;;9.40;99.90;;;;;;5073581;28;20990;-75
2022/12/26 10:16:54;;;;;;;4.90;4.13;;;9.40;99.90;;;;;;5072185;28;20877;-75
2022/12/26 10:19:34;;;;;;;4.80;3.40;;;9.50;99.90;;;;;;5073527;28;20453;-79
2022/12/26 10:22:10;;;;;;;3.90;3.20;;;9.20;99.90;;;;;;5073379;28;20450;-75
2022/12/26 10:24:40;;;;;;;4.53;3.40;;;9.10;99.90;;;;;;5073484;28;20441;-76
2022/12/26 10:27:20;;;;;;;3.53;3.13;;;9.10;99.90;;;;;;5073290;28;20442;-81
2022/12/26 10:29:53;;;;;;;4.27;3.07;;;9.10;99.90;;;;;;5073431;28;20456;-76
2022/12/26 10:32:25;;;;;;;7.00;3.60;;;9.10;99.90;;;;;;5071970;28;20453;-78
2022/12/26 10:34:52;;;;;;;4.13;3.10;;;;;;;;;;5073223;28;20450;-78
2022/12/26 10:37:24;;;;;;;4.43;3.37;;;9.10;99.90;;;;;;5073122;28;20552;-75
2022/12/26 10:39:56;;;;;;;3.43;2.53;;;9.10;99.90;;;;;;5073286;28;20445;-76
2022/12/26 10:42:27;;;;;;;7.33;3.33;;;8.70;99.90;;;;;;5073167;28;20441;-81
2022/12/26 10:44:54;;;;;;;3.60;2.97;;;;;;;;;;5073049;28;20450;-78
2022/12/26 10:47:30;;;;;;;4.67;3.03;;;8.70;99.90;;;;;;5071904;28;20438;-77
2022/12/26 10:49:58;;;;;;;4.37;3.33;;;;;;;;;;5072997;28;20452;-78
2022/12/26 10:52:30;;;;;;;4.20;2.90;;;9.40;99.90;;;;;;5073002;28;20532;-76
2022/12/26 10:54:59;;;;;;;5.30;3.40;;;9.20;99.90;;;;;;5072992;28;20453;-78
2022/12/26 10:57:29;;;;;;;3.20;2.57;;;9.20;99.90;;;;;;5072580;28;20450;-81
2022/12/26 10:59:56;;;;;;;5.17;2.80;;;;;;;;;;5072922;28;20796;-81
2022/12/26 11:02:27;;;;;;;2.50;2.30;;;9.20;99.90;;;;;;5071598;28;20658;-76
2022/12/26 11:04:59;;;;;;;2.83;2.20;;;9.40;99.90;;;;;;5073056;28;20457;-76
2022/12/26 11:07:30;;;;;;;2.60;1.97;;;9.40;99.90;;;;;;5072354;28;20450;-77
2022/12/26 11:09:58;;;;;;;2.07;1.20;;;;;;;;;;5072709;28;20803;-76
2022/12/26 11:12:30;;;;;;;1.90;1.43;;;9.50;99.90;;;;;;5072797;28;20904;-80
2022/12/26 11:15:00;;;;;;;1.60;1.50;;;9.50;99.90;;;;;;5072913;28;20445;-80
2022/12/26 11:17:30;;;;;;;4.93;2.87;;;9.50;99.90;;;;;;5072217;28;20446;-76
2022/12/26 11:20:22;;;;;;;1.63;1.30;;;9.80;99.90;;;;;;5072765;28;20445;-77
2022/12/26 11:22:50;;;;;;;2.20;1.10;;;;;;;;;;5072709;28;20851;-80
2022/12/26 11:25:20;;;;;;;1.90;1.23;;;9.60;99.90;;;;;;5072348;28;20442;-80
2022/12/26 11:27:49;;;;;;;0.70;0.50;;;9.90;99.90;;;;;;5072577;28;20477;-77
2022/12/26 11:30:28;;;;;;;2.03;1.33;;;9.70;99.90;;;;;;5071210;28;20810;-78
2022/12/26 11:33:16;;;;;;;1.07;0.83;;;9.60;99.90;;;;;;5072549;28;20442;-75
2022/12/26 11:35:49;;;;;;;2.57;1.23;;;8.80;99.90;;;;;;5072791;28;20457;-75
2022/12/26 11:43:41;;;;;;;1.50;1.20;;;;;;;;;;5063464;28;20433;-80
2022/12/26 11:46:08;;;;;;;1.53;1.10;;;;;;;;;;5071264;28;20444;-78
2022/12/26 11:48:36;;;;;;;2.17;1.10;;;9.60;99.90;;;;;;5072515;28;20446;-76
2022/12/26 11:51:03;;;;;;;3.40;1.10;;;;;;;;;;5072598;28;20481;-83
2022/12/26 11:53:30;;;;;;;0.80;0.80;;;;;;;;;;5072478;28;20520;-78
2022/12/26 11:56:00;;;;;;;0.90;0.77;;;9.80;99.90;;;;;;5072333;28;20455;-79
2022/12/26 11:58:29;;;;;;;0.90;0.80;;;9.60;99.90;;;;;;5072161;28;20859;-76
2022/12/26 12:01:16;;;;;;;0.80;0.60;;;9.90;99.90;;;;;;5071078;28;20446;-76
2022/12/26 12:03:46;;;;;;;2.83;0.70;;;9.50;99.90;;;;;;5072255;28;20442;-79
2022/12/26 12:06:45;;;;;;;2.43;0.90;;;9.50;99.90;;;;;;5072116;28;20449;-76
2022/12/26 12:09:19;;;;;;;0.60;0.60;;;9.60;99.90;;;;;;5072290;28;20450;-77
2022/12/26 12:11:53;;;;;;;0.67;0.60;;;11.50;99.90;;;;;;5072134;28;20510;-81
2022/12/26 12:14:32;;;;;;;0.73;0.70;;;9.60;99.90;;;;;;5072173;28;20932;-79
2022/12/26 12:17:08;;;;;;;1.00;0.60;;;9.80;99.90;;;;;;5070951;28;20462;-79
2022/12/26 12:19:46;;;;;;;1.20;0.50;;;9.60;99.90;;;;;;5074436;28;20444;-78
2022/12/26 12:22:38;;;;;;;3.63;0.90;;;9.60;99.90;;;;;;5075771;28;20453;-76
2022/12/26 12:25:25;;;;;;;0.93;0.60;;;9.60;99.90;;;;;;5063455;28;20457;-80
2022/12/26 12:28:01;;;;;;;0.50;0.40;;;9.60;99.90;;;;;;5075591;28;20488;-81
2022/12/26 12:30:35;;;;;;;0.90;0.70;;;9.90;99.90;;;;;;5074177;28;20814;-80
2022/12/26 12:33:23;;;;;;;1.03;0.80;;;9.40;99.90;;;;;;5075534;28;20464;-82
2022/12/26 12:36:03;;;;;;;1.53;1.20;;;9.60;99.90;;;;;;5075478;28;20477;-76
2022/12/26 12:38:33;;;;;;;2.13;1.07;;;9.60;99.90;;;;;;5075440;28;20449;-83
2022/12/26 12:41:47;;;;;;;4.10;0.80;;;9.40;99.90;;;;;;5075367;28;20449;-82
2022/12/26 12:44:22;;;;;;;1.10;0.77;;;9.60;99.90;;;;;;5003690;28;20503;-77
2022/12/26 12:46:58;;;;;;;0.80;0.60;;;9.40;99.90;;;;;;5070071;28;20460;-76
2022/12/26 12:49:38;;;;;;;0.60;0.50;;;9.60;99.90;;;;;;5075290;28;20445;-81
2022/12/26 12:52:17;;;;;;;0.50;0.50;;;9.60;99.90;;;;;;5075016;28;20853;-76
2022/12/26 12:55:06;;;;;;;0.57;0.50;;;9.60;99.90;;;;;;5075174;28;20449;-77
2022/12/26 12:57:40;;;;;;;0.67;0.53;;;9.60;99.90;;;;;;5074971;28;20477;-78
2022/12/26 13:00:14;;;;;;;1.07;0.97;;;9.60;99.90;;;;;;5074155;28;20454;-76
2022/12/26 13:02:45;;;;;;;0.90;0.70;;;9.60;99.90;;;;;;5075042;28;20450;-77
2022/12/26 13:05:20;;;;;;;1.90;0.93;;;9.60;99.90;;;;;;5075046;28;20454;-79
2022/12/26 13:07:54;;;;;;;0.70;0.50;;;9.60;99.90;;;;;;5074912;28;20449;-80
2022/12/26 13:10:26;;;;;;;0.47;0.47;;;9.60;99.90;;;;;;5074898;28;20449;-81
2022/12/26 13:12:54;;;;;;;0.70;0.67;;;9.60;99.90;;;;;;5074710;28;20500;-78
2022/12/26 13:15:29;;;;;;;1.20;0.50;;;9.90;99.90;;;;;;5073635;28;20762;-76
2022/12/26 13:18:02;;;;;;;0.50;0.40;;;9.60;99.90;;;;;;5074729;28;20441;-81
2022/12/26 13:20:36;;;;;;;2.07;0.80;;;9.10;99.90;;;;;;5074836;28;20453;-78
2022/12/26 13:26:05;;;;;;;0.80;0.57;;;9.60;99.90;;;;;;5074455;28;20444;-76
2022/12/26 13:28:39;;;;;;;3.50;0.80;;;9.60;99.90;;;;;;5074503;28;20461;-79
2022/12/26 13:31:06;;;;;;;0.77;0.63;;;;;;;;;;5072754;28;20481;-76
2022/12/26 13:33:34;;;;;;;0.57;0.50;;;9.50;99.90;;;;;;5074351;28;20450;-80
2022/12/26 13:36:03;;;;;;;0.60;0.30;;;9.60;99.90;;;;;;5074285;28;20933;-77
2022/12/26 13:39:14;;;;;;;0.60;0.60;;;9.50;99.90;;;;;;5074301;28;20457;-80
2022/12/26 13:44:33;;;;;;;1.27;0.87;;;;;;;;;;5069832;28;20643;-76
2022/12/26 13:47:01;;;;;;;1.20;0.70;;;;;;;;;;5072779;28;20445;-76
2022/12/26 13:49:34;;;;;;;0.80;0.57;;;9.50;99.90;;;;;;5073992;28;20468;-75
2022/12/26 13:52:32;;;;;;;1.43;0.70;;;9.70;99.90;;;;;;5073927;28;20492;-83
2022/12/26 13:55:31;;;;;;;1.60;1.13;;;9.80;99.90;;;;;;5074031;28;20448;-79
2022/12/26 13:58:22;;;;;;;0.97;0.87;;;9.80;99.90;;;;;;5039927;28;20489;-80
2022/12/26 14:00:50;;;;;;;1.10;0.83;;;9.40;99.90;;;;;;5072422;28;20442;-80
2022/12/26 14:03:46;;;;;;;1.20;0.90;;;9.50;99.90;;;;;;5073772;28;20819;-78
2022/12/26 14:06:38;;;;;;;1.33;1.00;;;9.50;99.90;;;;;;5071300;28;20450;-76
2022/12/26 14:09:20;;;;;;;1.20;1.10;;;9.40;99.90;;;;;;5073655;28;20446;-82
2022/12/26 14:12:13;;;;;;;0.77;0.60;;;9.50;99.90;;;;;;5073614;28;20592;-78
2022/12/26 14:15:01;;;;;;;1.20;1.10;;;9.50;99.90;;;;;;5073675;28;20450;-84
2022/12/26 14:17:40;;;;;;;4.37;1.13;;;9.40;99.90;;;;;;5072675;28;20507;-83
2022/12/26 14:20:20;;;;;;;1.10;0.80;;;9.40;99.90;;;;;;5073427;28;20456;-79
2022/12/26 14:22:57;;;;;;;0.87;0.73;;;9.40;99.90;;;;;;5073571;28;20808;-83
2022/12/26 14:25:30;;;;;;;2.10;1.00;;;9.30;99.90;;;;;;5073372;28;20438;-83
2022/12/26 14:28:05;;;;;;;1.07;0.87;;;9.40;99.90;;;;;;5073414;28;20465;-76
2022/12/26 14:30:38;;;;;;;1.10;0.90;;;9.50;99.90;;;;;;5072003;28;20936;-81
2022/12/26 14:33:30;;;;;;;1.03;0.90;;;9.50;99.90;;;;;;5073132;28;20861;-77
2022/12/26 14:36:20;;;;;;;1.20;1.00;;;9.50;99.90;;;;;;5058575;28;20469;-78
2022/12/26 14:38:54;;;;;;;1.37;1.27;;;9.50;99.90;;;;;;5073236;28;20449;-77
2022/12/26 14:44:15;;;;;;;0.80;0.80;;;9.30;99.90;;;;;;5073182;28;20433;-79
2022/12/26 14:47:04;;;;;;;3.50;0.93;;;9.60;99.90;;;;;;5071814;28;20498;-78
2022/12/26 14:49:40;;;;;;;1.53;1.13;;;9.50;99.90;;;;;;5073226;28;20437;-79
2022/12/26 14:52:40;;;;;;;1.10;0.80;;;9.60;99.90;;;;;;5072944;28;20492;-79
2022/12/26 14:55:42;;;;;;;0.77;0.57;;;9.40;99.90;;;;;;5072807;28;20438;-78
2022/12/26 14:58:45;;;;;;;1.70;0.80;;;9.40;99.90;;;;;;5072809;28;20542;-81
2022/12/26 15:01:49;;;;;;;4.63;0.90;;;9.40;99.90;;;;;;5061648;28;20532;-76
2022/12/26 15:04:48;;;;;;;1.00;0.83;;;9.40;99.90;;;;;;5072900;28;20457;-84
2022/12/26 15:07:46;;;;;;;1.33;1.17;;;9.40;99.90;;;;;;5057370;28;20452;-82
2022/12/26 15:10:47;;;;;;;0.60;0.60;;;9.40;99.90;;;;;;5072834;28;20802;-78
2022/12/26 15:13:54;;;;;;;0.70;0.70;;;9.40;99.90;;;;;;5072675;28;20528;-79
2022/12/26 15:16:53;;;;;;;0.70;0.60;;;9.30;99.90;;;;;;5071394;28;20460;-81
2022/12/26 15:19:56;;;;;;;1.10;0.90;;;9.30;99.90;;;;;;5072733;28;20457;-82
2022/12/26 15:22:57;;;;;;;1.13;0.70;;;9.10;99.90;;;;;;5072530;28;20437;-81
2022/12/26 15:25:49;;;;;;;1.30;0.90;;;9.20;99.90;;;;;;5072611;28;20833;-79
2022/12/26 15:28:49;;;;;;;1.10;0.80;;;9.20;99.90;;;;;;5072481;28;20936;-78
2022/12/26 15:31:30;;;;;;;0.90;0.70;;;9.20;99.90;;;;;;5060973;28;20812;-83
2022/12/26 15:34:02;;;;;;;2.50;1.87;;;9.20;99.90;;;;;;5072688;28;20445;-79
2022/12/26 15:36:42;;;;;;;0.80;0.77;;;9.20;99.90;;;;;;5072478;28;20450;-77
2022/12/26 15:39:23;;;;;;;2.37;1.23;;;9.20;99.90;;;;;;5072471;28;20471;-77
2022/12/26 15:41:57;;;;;;;1.07;0.37;;;9.30;99.90;;;;;;5072524;28;20449;-78
2022/12/26 15:44:31;;;;;;;1.40;0.97;;;9.20;99.90;;;;;;5072411;28;20456;-83
2022/12/26 15:47:13;;;;;;;1.30;0.80;;;9.20;99.90;;;;;;5071194;28;20453;-76
2022/12/26 15:49:55;;;;;;;1.10;0.70;;;9.20;99.90;;;;;;5072409;28;20445;-80
2022/12/26 15:52:32;;;;;;;1.10;0.77;;;9.20;99.90;;;;;;5072827;28;20493;-78
2022/12/26 15:55:23;;;;;;;0.70;0.50;;;9.30;99.90;;;;;;5076445;28;20463;-80
2022/12/26 15:57:57;;;;;;;0.90;0.77;;;9.20;99.90;;;;;;5075919;28;20477;-78
2022/12/26 16:00:26;;;;;;;0.90;0.70;;;9.20;99.90;;;;;;5074923;28;20453;-83
2022/12/26 16:03:10;;;;;;;1.30;0.70;;;9.20;99.90;;;;;;5076148;28;20449;-83
2022/12/26 16:06:08;;;;;;;1.90;0.83;;;9.20;99.90;;;;;;5076123;28;20445;-76
2022/12/26 16:08:48;;;;;;;0.80;0.60;;;9.20;99.90;;;;;;5063902;28;20460;-82
2022/12/26 16:11:20;;;;;;;0.60;0.50;;;9.10;99.90;;;;;;5075962;28;20950;-76
2022/12/26 16:13:57;;;;;;;0.70;0.70;;;9.00;99.90;;;;;;5075862;28;21027;-83
2022/12/26 16:16:26;;;;;;;0.70;0.60;;;9.10;99.90;;;;;;5074414;28;20478;-85
2022/12/26 16:18:53;;;;;;;0.90;0.70;;;;;;;;;;5075803;28;20456;-79